createdAt,value
2022-11-29T00:00:52.923Z,102342.69
2022-11-29T00:01:54.849Z,102352.07
2022-11-29T00:02:56.747Z,102360.50
2022-11-29T00:03:58.547Z,102347.54
2022-11-29T00:05:00.350Z,102353.66
2022-11-29T00:06:02.203Z,102344.96
2022-11-29T00:07:03.997Z,102347.73
2022-11-29T00:08:05.782Z,102353.86
2022-11-29T00:09:07.603Z,102344.45
2022-11-29T00:10:09.885Z,102350.41
2022-11-29T00:11:11.740Z,102343.56
2022-11-29T00:12:13.535Z,102341.87
2022-11-29T00:13:15.339Z,102353.28
2022-11-29T00:14:17.148Z,102348.14
2022-11-29T00:15:18.970Z,102345.27
2022-11-29T00:16:21.508Z,102352.07
2022-11-29T00:17:23.290Z,102342.29
2022-11-29T00:18:25.108Z,102335.34
2022-11-29T00:19:26.909Z,102343.85
2022-11-29T00:20:28.727Z,102344.77
2022-11-29T00:21:30.589Z,102351.67
2022-11-29T00:22:32.367Z,102342.09
2022-11-29T00:23:34.207Z,102343.85
2022-11-29T00:24:36.010Z,102346.52
2022-11-29T00:25:37.795Z,102354.95
2022-11-29T00:26:39.753Z,102348.02
2022-11-29T00:27:41.529Z,102349.70
2022-11-29T00:28:43.316Z,102350.48
2022-11-29T00:29:45.129Z,102347.81
2022-11-29T00:30:46.944Z,102344.56
2022-11-29T00:31:49.032Z,102342.19
2022-11-29T00:32:50.837Z,102350.98
2022-11-29T00:33:52.678Z,102356.44
2022-11-29T00:34:57.270Z,102351.39
2022-11-29T00:35:58.085Z,102364.84
2022-11-29T00:37:00.031Z,102354.55
2022-11-29T00:38:01.808Z,102350.98
2022-11-29T00:39:03.640Z,102353.47
2022-11-29T00:40:05.556Z,102350.89
2022-11-29T00:41:07.382Z,102347.54
2022-11-29T00:42:09.230Z,102358.71
2022-11-29T00:43:11.052Z,102355.36
2022-11-29T00:44:18.413Z,102342.88
2022-11-29T00:45:16.501Z,102350.79
2022-11-29T00:46:18.349Z,102349.81
2022-11-29T00:47:20.241Z,102357.53
2022-11-29T00:48:22.020Z,102356.52
2022-11-29T00:49:23.812Z,102359.29
2022-11-29T00:50:25.619Z,102356.72
2022-11-29T00:51:27.417Z,102354.95
2022-11-29T00:52:29.286Z,102350.79
2022-11-29T00:53:31.090Z,102345.84
2022-11-29T00:54:32.913Z,102360.41
2022-11-29T00:55:34.703Z,102351.77
2022-11-29T00:56:36.497Z,102350.02
2022-11-29T00:57:38.230Z,102352.38
2022-11-29T00:58:39.946Z,102354.63
2022-11-29T00:59:41.734Z,102355.44
2022-11-29T01:00:43.547Z,102353.64
2022-11-29T01:01:45.421Z,102352.96
2022-11-29T01:02:47.356Z,102345.24
2022-11-29T01:03:49.152Z,102354.75
2022-11-29T01:04:51.005Z,102352.96
2022-11-29T01:05:52.804Z,102348.49
2022-11-29T01:06:54.606Z,102347.72
2022-11-29T01:07:56.491Z,102343.25
2022-11-29T01:08:58.268Z,102337.32
2022-11-29T01:10:00.069Z,102336.51
2022-11-29T01:11:01.866Z,102340.00
2022-11-29T01:12:03.674Z,102333.63
2022-11-29T01:13:05.517Z,102332.66
2022-11-29T01:14:07.352Z,102338.00
2022-11-29T01:15:09.160Z,102334.55
2022-11-29T01:16:10.970Z,102330.18
2022-11-29T01:17:12.763Z,102328.39
2022-11-29T01:18:14.686Z,102338.78
2022-11-29T01:19:16.512Z,102332.08
2022-11-29T01:20:18.317Z,102330.48
2022-11-29T01:21:20.113Z,102327.03
2022-11-29T01:22:21.917Z,102333.16
2022-11-29T01:23:23.761Z,102329.80
2022-11-29T01:24:25.572Z,102329.70
2022-11-29T01:25:27.381Z,102319.31
2022-11-29T01:26:29.180Z,102328.79
2022-11-29T01:27:30.995Z,102328.89
2022-11-29T01:28:32.847Z,102328.02
2022-11-29T01:29:34.654Z,102325.34
2022-11-29T01:30:36.493Z,102329.70
2022-11-29T01:31:38.256Z,102327.81
2022-11-29T01:32:40.069Z,102325.23
2022-11-29T01:33:41.964Z,102328.69
2022-11-29T01:34:44.033Z,102327.81
2022-11-29T01:35:45.998Z,102326.22
2022-11-29T01:36:47.831Z,102328.02
2022-11-29T01:37:49.635Z,102327.91
2022-11-29T01:38:51.482Z,102327.03
2022-11-29T01:39:53.278Z,102326.22
2022-11-29T01:40:55.088Z,102324.45
2022-11-29T01:41:56.907Z,102327.91
2022-11-29T01:42:58.706Z,102326.93
2022-11-29T01:44:00.552Z,102330.38
2022-11-29T01:45:02.360Z,102336.41
2022-11-29T01:46:04.218Z,102324.55
2022-11-29T01:47:05.986Z,102328.89
2022-11-29T01:48:09.239Z,102337.72
2022-11-29T01:49:11.270Z,102329.13
2022-11-29T01:50:13.066Z,102334.47
2022-11-29T01:51:14.860Z,102338.91
2022-11-29T01:52:16.678Z,102330.41
2022-11-29T01:53:18.487Z,102334.67
2022-11-29T01:54:20.316Z,102343.17
2022-11-29T01:55:22.114Z,102333.75
2022-11-29T01:56:23.910Z,102337.34
2022-11-29T01:57:25.714Z,102332.09
2022-11-29T01:58:27.527Z,102339.81
2022-11-29T01:59:29.364Z,102334.47
2022-11-29T02:00:31.262Z,102339.62
2022-11-29T02:01:33.123Z,102339.62
2022-11-29T02:02:35.055Z,102342.77
2022-11-29T02:03:36.881Z,102340.09
2022-11-29T02:04:38.740Z,102338.41
2022-11-29T02:05:40.551Z,102341.89
2022-11-29T02:06:42.367Z,102342.09
2022-11-29T02:07:44.432Z,102345.55
2022-11-29T02:08:46.380Z,102337.72
2022-11-29T02:09:48.230Z,102338.50
2022-11-29T02:10:50.054Z,102344.46
2022-11-29T02:11:51.877Z,102341.75
2022-11-29T02:12:53.673Z,102338.10
2022-11-29T02:13:55.480Z,102338.67
2022-11-29T02:14:57.341Z,102339.97
2022-11-29T02:15:59.187Z,102330.25
2022-11-29T02:17:00.935Z,102338.68
2022-11-29T02:18:02.742Z,102336.78
2022-11-29T02:19:04.558Z,102329.95
2022-11-29T02:20:06.979Z,102330.05
2022-11-29T02:21:08.796Z,102324.23
2022-11-29T02:22:10.614Z,102324.23
2022-11-29T02:23:12.415Z,102322.73
2022-11-29T02:24:14.214Z,102327.10
2022-11-29T02:25:16.066Z,102331.37
2022-11-29T02:26:17.873Z,102329.67
2022-11-29T02:27:19.670Z,102327.78
2022-11-29T02:28:21.466Z,102325.20
2022-11-29T02:29:23.262Z,102328.59
2022-11-29T02:30:25.130Z,102330.16
2022-11-29T02:31:26.942Z,102329.38
2022-11-29T02:32:28.732Z,102328.49
2022-11-29T02:33:30.543Z,102326.59
2022-11-29T02:34:32.378Z,102327.38
2022-11-29T02:35:34.265Z,102326.59
2022-11-29T02:36:36.113Z,102323.11
2022-11-29T02:37:37.914Z,102328.26
2022-11-29T02:38:39.715Z,102321.45
2022-11-29T02:39:41.523Z,102326.59
2022-11-29T02:40:43.388Z,102320.44
2022-11-29T02:41:45.178Z,102314.41
2022-11-29T02:42:50.961Z,102316.20
2022-11-29T02:43:50.609Z,102318.78
2022-11-29T02:44:52.404Z,102315.63
2022-11-29T02:45:54.303Z,102319.08
2022-11-29T02:46:56.179Z,102316.61
2022-11-29T02:47:57.974Z,102322.73
2022-11-29T02:48:59.780Z,102316.81
2022-11-29T02:50:01.597Z,102322.73
2022-11-29T02:51:03.671Z,102327.68
2022-11-29T02:52:05.461Z,102325.01
2022-11-29T02:53:07.266Z,102319.08
2022-11-29T02:54:09.083Z,102316.41
2022-11-29T02:55:10.886Z,102317.09
2022-11-29T02:56:13.352Z,102309.27
2022-11-29T02:57:15.171Z,102320.54
2022-11-29T02:58:16.990Z,102319.77
2022-11-29T02:59:18.793Z,102324.91
2022-11-29T03:00:20.607Z,102319.66
2022-11-29T03:01:22.519Z,102323.25
2022-11-29T03:02:24.429Z,102320.67
2022-11-29T03:03:26.287Z,102326.02
2022-11-29T03:04:28.107Z,102326.02
2022-11-29T03:05:29.914Z,102327.68
2022-11-29T03:06:32.017Z,102323.55
2022-11-29T03:07:33.903Z,102334.72
2022-11-29T03:08:35.640Z,102331.95
2022-11-29T03:09:37.440Z,102331.06
2022-11-29T03:10:39.342Z,102332.83
2022-11-29T03:11:41.184Z,102332.83
2022-11-29T03:12:42.994Z,102330.45
2022-11-29T03:13:44.784Z,102342.44
2022-11-29T03:14:46.938Z,102336.52
2022-11-29T03:15:48.961Z,102337.50
2022-11-29T03:16:50.744Z,102341.15
2022-11-29T03:17:52.547Z,102341.25
2022-11-29T03:18:54.346Z,102338.10
2022-11-29T03:19:56.214Z,102353.73
2022-11-29T03:20:58.146Z,102345.14
2022-11-29T03:22:00.065Z,102346.02
2022-11-29T03:23:01.883Z,102348.70
2022-11-29T03:24:03.717Z,102348.70
2022-11-29T03:25:05.522Z,102350.59
2022-11-29T03:26:07.830Z,102344.56
2022-11-29T03:27:09.698Z,102348.11
2022-11-29T03:28:11.496Z,102347.54
2022-11-29T03:29:13.440Z,102334.47
2022-11-29T03:30:15.256Z,102346.72
2022-11-29T03:31:17.101Z,102351.19
2022-11-29T03:32:18.909Z,102343.38
2022-11-29T03:33:20.718Z,102344.25
2022-11-29T03:34:22.511Z,102348.62
2022-11-29T03:35:24.324Z,102342.49
2022-11-29T03:36:26.240Z,102350.89
2022-11-29T03:37:28.122Z,102342.19
2022-11-29T03:38:29.954Z,102341.98
2022-11-29T03:39:31.769Z,102340.20
2022-11-29T03:40:33.557Z,102341.89
2022-11-29T03:41:35.354Z,102336.51
2022-11-29T03:42:37.202Z,102343.14
2022-11-29T03:43:38.996Z,102343.72
2022-11-29T03:44:40.796Z,102336.81
2022-11-29T03:45:42.597Z,102343.05
2022-11-29T03:46:44.382Z,102339.49
2022-11-29T03:47:46.211Z,102351.55
2022-11-29T03:48:48.019Z,102343.83
2022-11-29T03:49:49.832Z,102342.94
2022-11-29T03:50:51.646Z,102339.29
2022-11-29T03:51:53.441Z,102339.97
2022-11-29T03:52:55.353Z,102336.52
2022-11-29T03:53:57.167Z,102340.95
2022-11-29T03:54:58.971Z,102344.23
2022-11-29T03:56:00.760Z,102344.03
2022-11-29T03:57:02.489Z,102347.38
2022-11-29T03:58:04.324Z,102342.13
2022-11-29T03:59:06.133Z,102336.78
2022-11-29T04:00:08.250Z,102335.97
2022-11-29T04:01:10.081Z,102334.52
2022-11-29T04:02:11.969Z,102347.48
2022-11-29T04:03:13.955Z,102332.83
2022-11-29T04:04:15.768Z,102342.23
2022-11-29T04:05:17.567Z,102340.34
2022-11-29T04:06:19.357Z,102333.73
2022-11-29T04:07:21.185Z,102336.31
2022-11-29T04:08:23.076Z,102352.52
2022-11-29T04:09:24.887Z,102337.56
2022-11-29T04:10:26.686Z,102344.40
2022-11-29T04:11:28.498Z,102346.77
2022-11-29T04:12:30.321Z,102348.11
2022-11-29T04:13:32.165Z,102344.15
2022-11-29T04:14:33.934Z,102348.14
2022-11-29T04:15:35.640Z,102350.61
2022-11-29T04:16:37.531Z,102351.63
2022-11-29T04:17:39.328Z,102344.92
2022-11-29T04:18:41.183Z,102344.25
2022-11-29T04:19:42.989Z,102347.70
2022-11-29T04:20:48.166Z,102347.91
2022-11-29T04:21:48.416Z,102343.98
2022-11-29T04:22:50.222Z,102351.81
2022-11-29T04:23:52.151Z,102348.42
2022-11-29T04:24:53.957Z,102352.80
2022-11-29T04:25:55.743Z,102360.41
2022-11-29T04:26:57.639Z,102359.52
2022-11-29T04:27:59.437Z,102350.89
2022-11-29T04:29:01.294Z,102370.80
2022-11-29T04:30:03.108Z,102368.33
2022-11-29T04:31:04.942Z,102369.20
2022-11-29T04:32:06.711Z,102371.88
2022-11-29T04:33:08.525Z,102365.18
2022-11-29T04:34:10.695Z,102371.20
2022-11-29T04:35:12.510Z,102373.10
2022-11-29T04:36:14.414Z,102376.55
2022-11-29T04:37:16.317Z,102369.75
2022-11-29T04:38:18.095Z,102375.20
2022-11-29T04:39:19.974Z,102381.23
2022-11-29T04:40:21.779Z,102391.72
2022-11-29T04:41:23.574Z,102376.09
2022-11-29T04:42:25.250Z,102379.44
2022-11-29T04:43:27.040Z,102383.80
2022-11-29T04:44:28.896Z,102387.26
2022-11-29T04:45:30.679Z,102390.74
2022-11-29T04:46:32.503Z,102389.93
2022-11-29T04:47:34.313Z,102378.66
2022-11-29T04:48:36.122Z,102385.29
2022-11-29T04:49:37.983Z,102380.52
2022-11-29T04:50:40.302Z,102386.33
2022-11-29T04:51:42.107Z,102384.53
2022-11-29T04:52:43.915Z,102396.52
2022-11-29T04:53:45.732Z,102392.15
2022-11-29T04:54:47.863Z,102392.05
2022-11-29T04:55:49.624Z,102392.86
2022-11-29T04:56:51.519Z,102394.72
2022-11-29T04:57:53.337Z,102397.39
2022-11-29T04:58:55.139Z,102399.86
2022-11-29T04:59:56.995Z,102406.59
2022-11-29T05:00:58.904Z,102394.52
2022-11-29T05:02:00.736Z,102393.84
2022-11-29T05:03:02.519Z,102397.39
2022-11-29T05:04:04.310Z,102392.56
2022-11-29T05:05:06.160Z,102400.63
2022-11-29T05:06:08.260Z,102402.38
2022-11-29T05:07:10.066Z,102399.91
2022-11-29T05:08:11.850Z,102398.46
2022-11-29T05:09:13.655Z,102402.02
2022-11-29T05:10:15.603Z,102396.88
2022-11-29T05:11:20.811Z,102392.61
2022-11-29T05:12:21.036Z,102388.38
2022-11-29T05:13:22.862Z,102390.34
2022-11-29T05:14:24.679Z,102386.01
2022-11-29T05:15:26.516Z,102392.91
2022-11-29T05:16:28.357Z,102388.48
2022-11-29T05:17:30.103Z,102391.83
2022-11-29T05:18:31.913Z,102386.68
2022-11-29T05:19:33.740Z,102394.30
2022-11-29T05:20:35.701Z,102394.41
2022-11-29T05:21:37.526Z,102410.92
2022-11-29T05:22:39.323Z,102395.59
2022-11-29T05:23:41.144Z,102392.91
2022-11-29T05:24:43.349Z,102393.72
2022-11-29T05:25:45.466Z,102399.85
2022-11-29T05:26:47.291Z,102400.63
2022-11-29T05:27:49.072Z,102403.00
2022-11-29T05:28:51.024Z,102401.23
2022-11-29T05:29:52.851Z,102397.65
2022-11-29T05:30:54.763Z,102397.65
2022-11-29T05:31:56.726Z,102404.12
2022-11-29T05:32:58.528Z,102414.61
2022-11-29T05:34:00.453Z,102402.42
2022-11-29T05:35:02.260Z,102405.67
2022-11-29T05:36:04.108Z,102414.88
2022-11-29T05:37:05.903Z,102407.84
2022-11-29T05:38:07.599Z,102407.84
2022-11-29T05:39:09.420Z,102409.84
2022-11-29T05:40:11.413Z,102414.20
2022-11-29T05:41:13.330Z,102411.53
2022-11-29T05:42:15.089Z,102411.42
2022-11-29T05:43:16.901Z,102413.19
2022-11-29T05:44:18.722Z,102415.76
2022-11-29T05:45:20.530Z,102421.83
2022-11-29T05:46:22.532Z,102414.10
2022-11-29T05:47:29.766Z,102408.85
2022-11-29T05:48:27.961Z,102406.95
2022-11-29T05:49:29.769Z,102402.89
2022-11-29T05:50:31.562Z,102403.91
2022-11-29T05:51:33.408Z,102402.02
2022-11-29T05:52:35.328Z,102395.98
2022-11-29T05:53:37.149Z,102397.86
2022-11-29T05:54:38.946Z,102396.30
2022-11-29T05:55:40.754Z,102402.12
2022-11-29T05:56:42.641Z,102393.52
2022-11-29T05:57:44.464Z,102397.65
2022-11-29T05:58:46.253Z,102399.34
2022-11-29T05:59:48.066Z,102392.30
2022-11-29T06:00:49.862Z,102402.69
2022-11-29T06:01:51.888Z,102403.00
2022-11-29T06:02:53.699Z,102402.33
2022-11-29T06:03:55.479Z,102404.22
2022-11-29T06:04:57.328Z,102406.22
2022-11-29T06:05:59.127Z,102407.30
2022-11-29T06:07:00.965Z,102404.83
2022-11-29T06:08:02.768Z,102409.09
2022-11-29T06:09:04.569Z,102404.53
2022-11-29T06:10:06.473Z,102406.08
2022-11-29T06:11:08.291Z,102407.78
2022-11-29T06:12:10.187Z,102411.23
2022-11-29T06:13:11.987Z,102405.10
2022-11-29T06:14:13.793Z,102406.80
2022-11-29T06:15:15.613Z,102402.42
2022-11-29T06:16:17.454Z,102409.16
2022-11-29T06:17:19.267Z,102417.77
2022-11-29T06:18:21.050Z,102409.06
2022-11-29T06:19:22.864Z,102421.83
2022-11-29T06:20:24.691Z,102426.97
2022-11-29T06:21:26.583Z,102417.35
2022-11-29T06:22:28.428Z,102419.82
2022-11-29T06:23:30.231Z,102414.88
2022-11-29T06:24:32.056Z,102410.72
2022-11-29T06:25:33.850Z,102410.72
2022-11-29T06:26:35.664Z,102408.14
2022-11-29T06:27:37.626Z,102409.94
2022-11-29T06:28:39.441Z,102414.31
2022-11-29T06:29:41.249Z,102416.37
2022-11-29T06:30:43.051Z,102411.23
2022-11-29T06:31:44.938Z,102406.59
2022-11-29T06:32:46.818Z,102413.50
2022-11-29T06:33:48.625Z,102412.52
2022-11-29T06:34:50.545Z,102412.52
2022-11-29T06:35:52.362Z,102411.73
2022-11-29T06:36:54.179Z,102410.82
2022-11-29T06:37:56.032Z,102411.42
2022-11-29T06:38:57.840Z,102410.61
2022-11-29T06:39:59.640Z,102395.08
2022-11-29T06:41:02.344Z,102408.95
2022-11-29T06:42:04.385Z,102398.56
2022-11-29T06:43:06.316Z,102403.81
2022-11-29T06:44:08.131Z,102396.09
2022-11-29T06:45:09.960Z,102398.77
2022-11-29T06:46:12.143Z,102393.72
2022-11-29T06:47:13.993Z,102395.59
2022-11-29T06:48:15.854Z,102391.56
2022-11-29T06:49:17.664Z,102408.80
2022-11-29T06:50:19.456Z,102396.91
2022-11-29T06:51:21.265Z,102395.22
2022-11-29T06:52:23.069Z,102392.55
2022-11-29T06:53:24.925Z,102397.01
2022-11-29T06:54:26.718Z,102397.01
2022-11-29T06:55:28.524Z,102392.74
2022-11-29T06:56:30.319Z,102397.01
2022-11-29T06:57:32.136Z,102394.34
2022-11-29T06:58:36.297Z,102398.27
2022-11-29T06:59:37.799Z,102400.84
2022-11-29T07:00:39.694Z,102398.16
2022-11-29T07:01:41.557Z,102398.06
2022-11-29T07:02:43.433Z,102397.28
2022-11-29T07:03:45.275Z,102394.81
2022-11-29T07:04:47.123Z,102389.56
2022-11-29T07:05:48.992Z,102389.56
2022-11-29T07:06:50.810Z,102391.66
2022-11-29T07:07:52.700Z,102393.76
2022-11-29T07:08:54.554Z,102380.08
2022-11-29T07:09:56.353Z,102382.86
2022-11-29T07:10:58.172Z,102385.63
2022-11-29T07:11:59.973Z,102377.23
2022-11-29T07:13:01.769Z,102385.93
2022-11-29T07:14:03.683Z,102380.11
2022-11-29T07:15:05.480Z,102375.73
2022-11-29T07:16:07.644Z,102374.17
2022-11-29T07:17:09.500Z,102374.27
2022-11-29T07:18:11.316Z,102379.72
2022-11-29T07:19:13.166Z,102367.63
2022-11-29T07:20:14.975Z,102372.68
2022-11-29T07:21:16.770Z,102373.27
2022-11-29T07:22:18.571Z,102375.84
2022-11-29T07:23:20.388Z,102363.78
2022-11-29T07:24:22.232Z,102365.54
2022-11-29T07:25:24.017Z,102365.64
2022-11-29T07:26:25.822Z,102380.60
2022-11-29T07:27:27.637Z,102382.50
2022-11-29T07:28:29.455Z,102360.92
2022-11-29T07:29:31.389Z,102365.77
2022-11-29T07:30:33.182Z,102362.28
2022-11-29T07:31:35.046Z,102356.16
2022-11-29T07:32:36.912Z,102356.64
2022-11-29T07:33:38.733Z,102349.50
2022-11-29T07:34:40.582Z,102346.83
2022-11-29T07:35:42.382Z,102352.98
2022-11-29T07:36:44.191Z,102351.87
2022-11-29T07:37:46.016Z,102350.98
2022-11-29T07:38:47.853Z,102355.36
2022-11-29T07:39:49.690Z,102346.62
2022-11-29T07:40:51.509Z,102363.86
2022-11-29T07:41:53.306Z,102355.16
2022-11-29T07:42:55.116Z,102354.24
2022-11-29T07:43:56.918Z,102356.41
2022-11-29T07:44:58.789Z,102341.45
2022-11-29T07:46:00.590Z,102360.85
2022-11-29T07:47:02.437Z,102345.11
2022-11-29T07:48:04.206Z,102358.55
2022-11-29T07:49:06.019Z,102342.03
2022-11-29T07:50:08.160Z,102346.50
2022-11-29T07:51:09.971Z,102351.03
2022-11-29T07:52:11.781Z,102363.90
2022-11-29T07:53:13.590Z,102381.91
2022-11-29T07:54:15.399Z,102349.27
2022-11-29T07:55:19.156Z,102359.66
2022-11-29T07:56:20.868Z,102357.88
2022-11-29T07:57:22.689Z,102347.28
2022-11-29T07:58:24.582Z,102358.24
2022-11-29T07:59:26.429Z,102362.61
2022-11-29T08:00:28.347Z,102363.69
2022-11-29T08:01:30.176Z,102378.45
2022-11-29T08:02:32.057Z,102365.69
2022-11-29T08:03:33.828Z,102364.10
2022-11-29T08:04:35.616Z,102357.30
2022-11-29T08:05:37.443Z,102355.40
2022-11-29T08:06:39.332Z,102369.25
2022-11-29T08:07:41.177Z,102358.75
2022-11-29T08:08:44.331Z,102374.19
2022-11-29T08:09:46.591Z,102368.27
2022-11-29T08:10:48.715Z,102375.41
2022-11-29T08:11:50.502Z,102378.19
2022-11-29T08:12:52.319Z,102366.98
2022-11-29T08:13:54.127Z,102371.45
2022-11-29T08:14:55.960Z,102374.22
2022-11-29T08:15:57.895Z,102374.22
2022-11-29T08:16:59.772Z,102366.61
2022-11-29T08:18:01.562Z,102378.89
2022-11-29T08:19:03.362Z,102369.78
2022-11-29T08:20:05.273Z,102369.89
2022-11-29T08:21:07.141Z,102361.48
2022-11-29T08:22:08.965Z,102369.41
2022-11-29T08:23:10.853Z,102374.95
2022-11-29T08:24:12.679Z,102368.02
2022-11-29T08:25:14.508Z,102350.91
2022-11-29T08:26:16.570Z,102354.95
2022-11-29T08:27:18.392Z,102349.90
2022-11-29T08:28:20.216Z,102356.25
2022-11-29T08:29:21.994Z,102346.84
2022-11-29T08:30:23.854Z,102356.55
2022-11-29T08:31:25.857Z,102370.30
2022-11-29T08:32:27.607Z,102342.70
2022-11-29T08:33:29.436Z,102347.52
2022-11-29T08:34:31.223Z,102347.52
2022-11-29T08:35:33.052Z,102356.06
2022-11-29T08:36:35.015Z,102352.91
2022-11-29T08:37:36.787Z,102341.79
2022-11-29T08:38:38.579Z,102354.86
2022-11-29T08:39:40.388Z,102368.74
2022-11-29T08:40:42.187Z,102348.05
2022-11-29T08:41:44.024Z,102355.77
2022-11-29T08:42:45.802Z,102349.61
2022-11-29T08:43:47.585Z,102343.58
2022-11-29T08:44:49.397Z,102341.98
2022-11-29T08:45:51.268Z,102342.91
2022-11-29T08:46:53.432Z,102340.33
2022-11-29T08:47:55.237Z,102342.19
2022-11-29T08:48:57.068Z,102336.06
2022-11-29T08:49:58.856Z,102330.81
2022-11-29T08:51:00.660Z,102340.42
2022-11-29T08:52:02.519Z,102337.85
2022-11-29T08:53:04.312Z,102368.64
2022-11-29T08:54:06.122Z,102361.70
2022-11-29T08:55:07.927Z,102341.98
2022-11-29T08:56:41.757Z,102336.45
2022-11-29T08:58:17.369Z,102338.92
2022-11-29T08:59:19.171Z,102329.50
2022-11-29T09:00:21.000Z,102326.92
2022-11-29T09:01:22.933Z,102327.94
2022-11-29T09:02:25.116Z,102328.14
2022-11-29T09:03:26.925Z,102330.03
2022-11-29T09:04:28.737Z,102326.54
2022-11-29T09:05:30.538Z,102328.33
2022-11-29T09:06:32.343Z,102331.89
2022-11-29T09:07:34.257Z,102325.37
2022-11-29T09:08:36.087Z,102329.12
2022-11-29T09:09:37.806Z,102329.12
2022-11-29T09:10:39.618Z,102331.79
2022-11-29T09:11:44.743Z,102335.24
2022-11-29T09:12:45.480Z,102336.16
2022-11-29T09:13:47.311Z,102326.55
2022-11-29T09:14:49.103Z,102322.08
2022-11-29T09:15:50.919Z,102325.27
2022-11-29T09:16:52.753Z,102321.59
2022-11-29T09:17:54.958Z,102318.23
2022-11-29T09:18:56.739Z,102316.73
2022-11-29T09:19:58.551Z,102321.00
2022-11-29T09:21:00.466Z,102310.90
2022-11-29T09:22:02.257Z,102314.35
2022-11-29T09:23:04.118Z,102302.59
2022-11-29T09:24:05.914Z,102303.37
2022-11-29T09:25:07.735Z,102298.31
2022-11-29T09:26:09.653Z,102289.42
2022-11-29T09:27:11.444Z,102297.92
2022-11-29T09:28:13.278Z,102296.95
2022-11-29T09:29:15.059Z,102299.14
2022-11-29T09:30:22.129Z,102287.83
2022-11-29T09:31:20.554Z,102280.83
2022-11-29T09:32:22.391Z,102297.34
2022-11-29T09:33:24.249Z,102292.98
2022-11-29T09:34:26.023Z,102288.84
2022-11-29T09:35:27.845Z,102282.97
2022-11-29T09:36:29.653Z,102294.37
2022-11-29T09:37:31.486Z,102285.16
2022-11-29T09:38:33.351Z,102293.07
2022-11-29T09:39:35.128Z,102298.41
2022-11-29T09:40:36.951Z,102289.81
2022-11-29T09:41:38.763Z,102299.91
2022-11-29T09:42:40.558Z,102286.03
2022-11-29T09:43:42.417Z,102283.06
2022-11-29T09:44:44.552Z,102276.75
2022-11-29T09:45:46.572Z,102272.97
2022-11-29T09:46:48.560Z,102278.02
2022-11-29T09:47:50.378Z,102278.12
2022-11-29T09:48:52.309Z,102279.12
2022-11-29T09:49:54.138Z,102276.55
2022-11-29T09:50:56.076Z,102274.86
2022-11-29T09:51:57.896Z,102290.20
2022-11-29T09:52:59.670Z,102277.23
2022-11-29T09:54:01.522Z,102274.77
2022-11-29T09:55:03.338Z,102286.07
2022-11-29T09:56:05.262Z,102294.58
2022-11-29T09:57:10.508Z,102269.61
2022-11-29T09:58:10.710Z,102279.03
2022-11-29T09:59:12.571Z,102281.70
2022-11-29T10:00:14.450Z,102282.68
2022-11-29T10:01:16.366Z,102272.28
2022-11-29T10:02:21.355Z,102275.88
2022-11-29T10:03:21.827Z,102264.56
2022-11-29T10:04:23.703Z,102284.47
2022-11-29T10:05:25.480Z,102285.45
2022-11-29T10:06:27.288Z,102270.09
2022-11-29T10:07:29.191Z,102266.74
2022-11-29T10:08:31.014Z,102275.53
2022-11-29T10:09:34.107Z,102288.70
2022-11-29T10:10:36.109Z,102265.72
2022-11-29T10:11:37.899Z,102269.40
2022-11-29T10:12:39.713Z,102263.56
2022-11-29T10:13:41.524Z,102265.52
2022-11-29T10:14:43.787Z,102267.40
2022-11-29T10:15:47.591Z,102260.05
2022-11-29T10:16:49.546Z,102276.48
2022-11-29T10:17:51.390Z,102265.89
2022-11-29T10:18:53.195Z,102279.97
2022-11-29T10:19:55.049Z,102283.61
2022-11-29T10:20:57.091Z,102289.67
2022-11-29T10:21:58.883Z,102281.03
2022-11-29T10:23:00.684Z,102290.45
2022-11-29T10:24:02.501Z,102284.52
2022-11-29T10:25:04.364Z,102281.03
2022-11-29T10:26:06.591Z,102289.86
2022-11-29T10:27:08.414Z,102272.80
2022-11-29T10:28:10.216Z,102291.81
2022-11-29T10:29:12.012Z,102288.73
2022-11-29T10:30:13.883Z,102282.98
2022-11-29T10:31:15.782Z,102282.26
2022-11-29T10:32:17.583Z,102283.36
2022-11-29T10:33:19.384Z,102267.20
2022-11-29T10:34:21.180Z,102282.03
2022-11-29T10:35:23.054Z,102285.70
2022-11-29T10:36:24.946Z,102286.12
2022-11-29T10:37:26.767Z,102286.12
2022-11-29T10:38:31.163Z,102269.87
2022-11-29T10:39:32.181Z,102272.45
2022-11-29T10:40:34.121Z,102277.60
2022-11-29T10:41:35.955Z,102276.97
2022-11-29T10:42:37.780Z,102266.15
2022-11-29T10:43:39.586Z,102283.59
2022-11-29T10:44:41.385Z,102271.85
2022-11-29T10:45:43.292Z,102279.59
2022-11-29T10:46:45.246Z,102277.92
2022-11-29T10:47:47.059Z,102266.61
2022-11-29T10:48:48.857Z,102281.47
2022-11-29T10:49:50.682Z,102271.25
2022-11-29T10:50:53.037Z,102278.80
2022-11-29T10:51:54.841Z,102271.85
2022-11-29T10:53:00.026Z,102265.03
2022-11-29T10:54:00.306Z,102262.55
2022-11-29T10:55:02.100Z,102262.73
2022-11-29T10:56:03.946Z,102261.03
2022-11-29T10:57:05.757Z,102269.91
2022-11-29T10:58:07.564Z,102271.61
2022-11-29T10:59:09.388Z,102259.42
2022-11-29T11:00:11.191Z,102259.42
2022-11-29T11:01:13.099Z,102262.91
2022-11-29T11:02:14.852Z,102263.79
2022-11-29T11:03:16.668Z,102253.38
2022-11-29T11:04:18.493Z,102252.33
2022-11-29T11:05:20.350Z,102252.41
2022-11-29T11:06:22.183Z,102255.88
2022-11-29T11:07:24.032Z,102249.11
2022-11-29T11:08:25.814Z,102257.84
2022-11-29T11:09:27.613Z,102257.02
2022-11-29T11:10:29.414Z,102263.97
2022-11-29T11:11:31.247Z,102249.11
2022-11-29T11:12:33.046Z,102250.81
2022-11-29T11:13:34.853Z,102256.05
2022-11-29T11:14:36.684Z,102254.35
2022-11-29T11:15:38.468Z,102245.13
2022-11-29T11:16:40.512Z,102252.87
2022-11-29T11:17:42.336Z,102252.78
2022-11-29T11:18:44.139Z,102246.01
2022-11-29T11:19:45.949Z,102256.50
2022-11-29T11:20:47.837Z,102251.53
2022-11-29T11:21:49.756Z,102259.36
2022-11-29T11:22:51.571Z,102257.78
2022-11-29T11:23:53.359Z,102270.94
2022-11-29T11:24:55.155Z,102260.71
2022-11-29T11:25:56.975Z,102260.71
2022-11-29T11:26:58.848Z,102266.93
2022-11-29T11:28:00.633Z,102267.11
2022-11-29T11:29:02.487Z,102262.04
2022-11-29T11:30:04.395Z,102259.55
2022-11-29T11:31:06.238Z,102258.76
2022-11-29T11:32:08.049Z,102257.67
2022-11-29T11:33:09.863Z,102261.07
2022-11-29T11:34:11.657Z,102251.27
2022-11-29T11:35:18.320Z,102256.34
2022-11-29T11:36:17.093Z,102265.05
2022-11-29T11:37:18.969Z,102248.70
2022-11-29T11:38:20.762Z,102253.67
2022-11-29T11:39:22.574Z,102256.16
2022-11-29T11:40:24.446Z,102257.69
2022-11-29T11:41:26.303Z,102254.28
2022-11-29T11:42:28.134Z,102248.25
2022-11-29T11:43:29.950Z,102263.72
2022-11-29T11:44:47.990Z,102258.66
2022-11-29T11:45:35.375Z,102266.39
2022-11-29T11:46:37.334Z,102256.08
2022-11-29T11:47:39.148Z,102255.28